sensor_id;sensor_type;location;lat;lon;timestamp;pressure;altitude;pressure_sealevel;temperature;humidity
70458;BME280;57919;56.194;95.716;2023-11-21T00:03:52;100437.28;;;-9.84;62.34
70458;BME280;57919;56.194;95.716;2023-11-21T00:13:57;100464.72;;;-10.18;57.79
70458;BME280;57919;56.194;95.716;2023-11-21T00:23:59;100498.25;;;-10.48;56.34
70458;BME280;57919;56.194;95.716;2023-11-21T00:34:04;100511.69;;;-10.78;55.48
70458;BME280;57919;56.194;95.716;2023-11-21T00:44:09;100532.03;;;-11.07;55.87
70458;BME280;57919;56.194;95.716;2023-11-21T00:54:12;100567.28;;;-11.29;56.65
70458;BME280;57919;56.194;95.716;2023-11-21T01:04:14;100583.19;;;-11.59;56.78
70458;BME280;57919;56.194;95.716;2023-11-21T01:14:16;100606.88;;;-11.89;55.79
70458;BME280;57919;56.194;95.716;2023-11-21T01:24:19;100620.38;;;-12.05;55.66
70458;BME280;57919;56.194;95.716;2023-11-21T01:34:21;100655.25;;;-12.01;55.89
70458;BME280;57919;56.194;95.716;2023-11-21T01:44:23;100681.63;;;-11.89;56.34
70458;BME280;57919;56.194;95.716;2023-11-21T01:54:27;100710.16;;;-11.95;56.85
70458;BME280;57919;56.194;95.716;2023-11-21T02:04:33;100732.16;;;-11.86;62.13
70458;BME280;57919;56.194;95.716;2023-11-21T02:14:35;100766.69;;;-11.25;61.16
70458;BME280;57919;56.194;95.716;2023-11-21T02:24:41;100784.78;;;-11.67;57.08
70458;BME280;57919;56.194;95.716;2023-11-21T02:34:44;100808.06;;;-11.75;57.15
70458;BME280;57919;56.194;95.716;2023-11-21T02:44:46;100838.66;;;-12.02;61.10
70458;BME280;57919;56.194;95.716;2023-11-21T02:54:48;100870.44;;;-12.16;61.96
70458;BME280;57919;56.194;95.716;2023-11-21T03:04:50;100907.84;;;-11.52;58.30
70458;BME280;57919;56.194;95.716;2023-11-21T03:14:52;100932.59;;;-12.29;56.33
70458;BME280;57919;56.194;95.716;2023-11-21T03:24:56;100959.09;;;-12.16;56.62
70458;BME280;57919;56.194;95.716;2023-11-21T03:34:59;100967.06;;;-12.11;54.73
70458;BME280;57919;56.194;95.716;2023-11-21T03:45:05;101003.50;;;-12.13;56.16
70458;BME280;57919;56.194;95.716;2023-11-21T03:55:08;101011.31;;;-11.86;55.54
70458;BME280;57919;56.194;95.716;2023-11-21T04:05:10;101013.94;;;-12.13;55.34
70458;BME280;57919;56.194;95.716;2023-11-21T04:15:12;101048.72;;;-12.12;55.96
70458;BME280;57919;56.194;95.716;2023-11-21T04:25:16;101063.97;;;-12.24;54.36
70458;BME280;57919;56.194;95.716;2023-11-21T04:35:19;101083.38;;;-12.16;54.41
70458;BME280;57919;56.194;95.716;2023-11-21T04:45:21;101115.84;;;-12.06;55.04
70458;BME280;57919;56.194;95.716;2023-11-21T04:55:23;101120.94;;;-11.84;53.85
70458;BME280;57919;56.194;95.716;2023-11-21T05:05:25;101136.69;;;-12.33;51.19
70458;BME280;57919;56.194;95.716;2023-11-21T05:15:27;101150.25;;;-12.67;49.71
70458;BME280;57919;56.194;95.716;2023-11-21T05:25:29;101173.63;;;-12.69;49.99
70458;BME280;57919;56.194;95.716;2023-11-21T05:35:31;101177.50;;;-12.82;50.54
70458;BME280;57919;56.194;95.716;2023-11-21T05:45:33;101199.97;;;-12.85;50.33
70458;BME280;57919;56.194;95.716;2023-11-21T05:55:36;101205.88;;;-12.89;49.96
70458;BME280;57919;56.194;95.716;2023-11-21T06:05:38;101216.00;;;-12.75;50.38
70458;BME280;57919;56.194;95.716;2023-11-21T06:15:40;101233.91;;;-12.60;50.92
70458;BME280;57919;56.194;95.716;2023-11-21T06:25:42;101235.91;;;-12.29;57.60
70458;BME280;57919;56.194;95.716;2023-11-21T06:35:45;101260.88;;;-11.86;51.43
70458;BME280;57919;56.194;95.716;2023-11-21T06:45:47;101259.88;;;-12.15;50.26
70458;BME280;57919;56.194;95.716;2023-11-21T06:55:49;101296.38;;;-12.39;49.80
70458;BME280;57919;56.194;95.716;2023-11-21T07:05:51;101304.81;;;-12.22;50.12
70458;BME280;57919;56.194;95.716;2023-11-21T07:15:53;101303.88;;;-12.24;49.80
70458;BME280;57919;56.194;95.716;2023-11-21T07:25:55;101320.66;;;-12.40;49.35
70458;BME280;57919;56.194;95.716;2023-11-21T07:35:57;101353.00;;;-12.57;49.31
70458;BME280;57919;56.194;95.716;2023-11-21T07:46:00;101383.88;;;-12.89;51.52
70458;BME280;57919;56.194;95.716;2023-11-21T07:56:05;101379.34;;;-13.15;49.78
70458;BME280;57919;56.194;95.716;2023-11-21T08:06:09;101410.78;;;-13.31;49.96
70458;BME280;57919;56.194;95.716;2023-11-21T08:16:11;101421.28;;;-13.49;50.23
70458;BME280;57919;56.194;95.716;2023-11-21T08:26:16;101443.97;;;-13.47;51.07
70458;BME280;57919;56.194;95.716;2023-11-21T08:36:19;101476.50;;;-13.56;51.36
70458;BME280;57919;56.194;95.716;2023-11-21T08:46:22;101491.28;;;-13.36;51.29
70458;BME280;57919;56.194;95.716;2023-11-21T08:56:24;101506.00;;;-13.56;52.86
70458;BME280;57919;56.194;95.716;2023-11-21T09:06:26;101538.44;;;-13.67;51.35
70458;BME280;57919;56.194;95.716;2023-11-21T09:16:29;101540.63;;;-13.76;51.64
70458;BME280;57919;56.194;95.716;2023-11-21T09:26:31;101560.28;;;-14.00;52.80
70458;BME280;57919;56.194;95.716;2023-11-21T09:36:33;101574.09;;;-14.01;53.53
70458;BME280;57919;56.194;95.716;2023-11-21T09:46:37;101579.81;;;-14.09;54.12
70458;BME280;57919;56.194;95.716;2023-11-21T09:56:42;101611.97;;;-14.24;53.92
70458;BME280;57919;56.194;95.716;2023-11-21T10:06:45;101619.38;;;-14.32;54.72
70458;BME280;57919;56.194;95.716;2023-11-21T10:16:49;101626.88;;;-14.38;55.02
70458;BME280;57919;56.194;95.716;2023-11-21T10:26:51;101634.66;;;-14.38;56.07
70458;BME280;57919;56.194;95.716;2023-11-21T10:36:55;101651.06;;;-14.39;56.85
70458;BME280;57919;56.194;95.716;2023-11-21T10:47:00;101672.28;;;-14.98;58.47
70458;BME280;57919;56.194;95.716;2023-11-21T10:57:03;101689.69;;;-15.12;58.33
70458;BME280;57919;56.194;95.716;2023-11-21T11:07:08;101696.75;;;-15.09;57.61
70458;BME280;57919;56.194;95.716;2023-11-21T11:17:14;101696.09;;;-15.21;58.01
70458;BME280;57919;56.194;95.716;2023-11-21T11:37:36;101730.97;;;-15.16;59.54
70458;BME280;57919;56.194;95.716;2023-11-21T11:47:39;101751.56;;;-15.19;59.02
70458;BME280;57919;56.194;95.716;2023-11-21T11:57:46;101744.34;;;-15.25;59.15
70458;BME280;57919;56.194;95.716;2023-11-21T12:07:52;101741.22;;;-15.03;58.53
70458;BME280;57919;56.194;95.716;2023-11-21T12:17:56;101746.69;;;-15.29;58.67
70458;BME280;57919;56.194;95.716;2023-11-21T12:27:59;101757.97;;;-15.44;60.19
70458;BME280;57919;56.194;95.716;2023-11-21T12:38:02;101783.28;;;-15.40;61.03
70458;BME280;57919;56.194;95.716;2023-11-21T12:48:06;101785.88;;;-15.40;59.73
70458;BME280;57919;56.194;95.716;2023-11-21T12:58:12;101796.63;;;-15.33;59.91
70458;BME280;57919;56.194;95.716;2023-11-21T13:08:14;101809.56;;;-15.19;61.37
70458;BME280;57919;56.194;95.716;2023-11-21T13:18:21;101812.97;;;-14.89;60.24
70458;BME280;57919;56.194;95.716;2023-11-21T13:28:23;101820.50;;;-15.24;60.53
70458;BME280;57919;56.194;95.716;2023-11-21T13:38:27;101822.56;;;-15.33;59.92
70458;BME280;57919;56.194;95.716;2023-11-21T13:48:33;101826.13;;;-15.31;60.10
70458;BME280;57919;56.194;95.716;2023-11-21T13:58:52;101829.63;;;-15.46;60.72
70458;BME280;57919;56.194;95.716;2023-11-21T14:08:55;101848.41;;;-15.35;60.86
70458;BME280;57919;56.194;95.716;2023-11-21T14:18:59;101865.16;;;-15.30;60.94
70458;BME280;57919;56.194;95.716;2023-11-21T14:29:11;101861.88;;;-15.57;59.94
70458;BME280;57919;56.194;95.716;2023-11-21T14:39:16;101871.06;;;-15.77;61.20
70458;BME280;57919;56.194;95.716;2023-11-21T14:49:31;101887.25;;;-15.81;62.53
70458;BME280;57919;56.194;95.716;2023-11-21T14:59:45;101896.44;;;-15.86;62.96
70458;BME280;57919;56.194;95.716;2023-11-21T15:09:59;101909.78;;;-16.08;62.59
70458;BME280;57919;56.194;95.716;2023-11-21T15:20:01;101917.19;;;-16.14;62.95
70458;BME280;57919;56.194;95.716;2023-11-21T15:30:05;101924.59;;;-16.20;62.88
70458;BME280;57919;56.194;95.716;2023-11-21T15:40:08;101936.84;;;-16.17;63.23
70458;BME280;57919;56.194;95.716;2023-11-21T15:50:10;101938.00;;;-16.12;62.95
70458;BME280;57919;56.194;95.716;2023-11-21T16:00:14;101935.13;;;-16.17;62.50
70458;BME280;57919;56.194;95.716;2023-11-21T16:10:21;101933.88;;;-16.23;63.43
70458;BME280;57919;56.194;95.716;2023-11-21T16:20:25;101935.44;;;-16.12;62.71
70458;BME280;57919;56.194;95.716;2023-11-21T16:30:27;101932.50;;;-16.04;63.77
70458;BME280;57919;56.194;95.716;2023-11-21T16:40:29;101929.63;;;-16.08;63.94
70458;BME280;57919;56.194;95.716;2023-11-21T16:50:31;101944.69;;;-16.16;64.30
70458;BME280;57919;56.194;95.716;2023-11-21T17:00:33;101944.47;;;-16.06;63.26
70458;BME280;57919;56.194;95.716;2023-11-21T17:10:35;101949.00;;;-15.88;62.51
70458;BME280;57919;56.194;95.716;2023-11-21T17:20:37;101941.88;;;-15.78;61.99
70458;BME280;57919;56.194;95.716;2023-11-21T17:30:40;101947.78;;;-15.80;62.18
70458;BME280;57919;56.194;95.716;2023-11-21T17:40:42;101959.38;;;-15.88;61.50
70458;BME280;57919;56.194;95.716;2023-11-21T17:50:44;101971.94;;;-15.94;61.99
70458;BME280;57919;56.194;95.716;2023-11-21T18:00:46;101984.44;;;-16.02;61.29
70458;BME280;57919;56.194;95.716;2023-11-21T18:10:48;101982.53;;;-16.05;61.38
70458;BME280;57919;56.194;95.716;2023-11-21T18:20:51;101975.69;;;-16.17;61.77
70458;BME280;57919;56.194;95.716;2023-11-21T18:30:53;101983.38;;;-16.19;61.68
70458;BME280;57919;56.194;95.716;2023-11-21T18:40:55;102004.53;;;-16.39;61.45
70458;BME280;57919;56.194;95.716;2023-11-21T18:50:57;101994.03;;;-16.69;61.63
70458;BME280;57919;56.194;95.716;2023-11-21T19:00:59;102011.81;;;-16.47;61.62
70458;BME280;57919;56.194;95.716;2023-11-21T19:11:01;102017.19;;;-16.57;61.73
70458;BME280;57919;56.194;95.716;2023-11-21T19:21:03;102008.66;;;-16.69;62.50
70458;BME280;57919;56.194;95.716;2023-11-21T19:31:05;102020.13;;;-16.65;62.06
70458;BME280;57919;56.194;95.716;2023-11-21T19:41:19;101994.78;;;-16.56;61.96
70458;BME280;57919;56.194;95.716;2023-11-21T19:51:21;102003.16;;;-16.60;61.78
70458;BME280;57919;56.194;95.716;2023-11-21T20:01:23;102017.09;;;-16.45;62.40
70458;BME280;57919;56.194;95.716;2023-11-21T20:11:25;102012.28;;;-16.26;61.63
70458;BME280;57919;56.194;95.716;2023-11-21T20:21:27;102023.75;;;-16.22;62.00
70458;BME280;57919;56.194;95.716;2023-11-21T20:31:29;102035.41;;;-16.16;62.09
70458;BME280;57919;56.194;95.716;2023-11-21T20:41:31;102017.66;;;-16.23;61.88
70458;BME280;57919;56.194;95.716;2023-11-21T20:51:33;102038.41;;;-16.23;61.10
70458;BME280;57919;56.194;95.716;2023-11-21T21:01:36;102024.84;;;-16.32;62.15
70458;BME280;57919;56.194;95.716;2023-11-21T21:11:38;102024.66;;;-16.48;61.53
70458;BME280;57919;56.194;95.716;2023-11-21T21:21:41;102031.94;;;-16.43;62.51
70458;BME280;57919;56.194;95.716;2023-11-21T21:31:43;102024.56;;;-16.37;62.11
70458;BME280;57919;56.194;95.716;2023-11-21T21:41:45;102020.28;;;-16.49;62.24
70458;BME280;57919;56.194;95.716;2023-11-21T21:51:48;102016.09;;;-16.47;62.69
70458;BME280;57919;56.194;95.716;2023-11-21T22:01:50;102021.06;;;-16.50;61.66
70458;BME280;57919;56.194;95.716;2023-11-21T22:11:52;102017.19;;;-16.44;62.36
70458;BME280;57919;56.194;95.716;2023-11-21T22:21:54;102010.50;;;-16.40;61.92
70458;BME280;57919;56.194;95.716;2023-11-21T22:31:56;102009.50;;;-16.42;62.02
70458;BME280;57919;56.194;95.716;2023-11-21T22:41:58;102022.28;;;-16.85;62.82
70458;BME280;57919;56.194;95.716;2023-11-21T22:52:00;102008.16;;;-16.77;62.84
70458;BME280;57919;56.194;95.716;2023-11-21T23:02:02;102018.91;;;-16.71;62.49
70458;BME280;57919;56.194;95.716;2023-11-21T23:12:04;102000.19;;;-16.80;62.79
70458;BME280;57919;56.194;95.716;2023-11-21T23:22:06;101997.78;;;-16.90;62.40
70458;BME280;57919;56.194;95.716;2023-11-21T23:32:09;102025.78;;;-16.84;61.93
70458;BME280;57919;56.194;95.716;2023-11-21T23:42:11;102011.63;;;-16.89;62.53
70458;BME280;57919;56.194;95.716;2023-11-21T23:52:16;102007.84;;;-16.94;62.72
